Airfield :







YOU CAN JOIN US ON...

 
LOGIN :

Register | Disclaimer

   EN    FR    IT 

 









Legend :    VFR   Marginal VFR   IFR   Intensive IFR   Very Intensive IFR
Visi :
Ceiling :
>= 8 km
>= 3000ft
5 to 8 km
1000 to 3000 ft
1500m to 5 km
500 to 1000 ft
800 to 1500m
200 to 500 ft
< 800m
< 200 ft
Symbols :   Thunderstorms  Fog  Heavy snow  Heavy precipitations  Wind > 20 kt







- Airport Elevation : 6 ft
- IATA code : AEY


BIAR - Akureyri

CURRENT METAR :
  • 202014Z 20023G36KT 3900 -SN FEW007 SCT015 BKN028 M02/M09 Q0995

EXPIRED METARs :
  • 202000Z 20021G37KT 1800 R01/1100VP2000N -SN VV004 M03/M07 Q0995
  • 201907Z 20015KT 180V240 4000 -SN FEW012 BKN027 M02/M08 Q0994
  • 201900Z 21029G43KT 9999 FEW035 BKN044 M01/M12 Q0994
  • 201844Z 21031G43KT 9999 FEW028 BKN038 M01/M12 Q0994

TAF TAF BIAR
Valid from the 20 at 21:00 until the 21 at 21:00 UTC


201930Z 2021/2121 22020G30KT 9999 FEW025 SCT045 TX01/2115Z TNM03/2106Z
PROB40
TEMPO 2021/2105 24030G40KT 2500 SHSN BKN010
TEMPO 2105/2112 3500 SHSN BKN015
BECMG 2105/2107 22015KT
No reported NOTAMs for that airfield.



MET'MAP, your aeronautical weather chart ! - Copyright ORBIFLY December 2007 - Disclaimer

ORBIFLY MET'MAP TEAM :

Programming & Development : Alexandra Zaïnal
Concept & Development : Baudouin d'Aumeries
Co-Development & Prog : Marc-Olivier Méhu
Technical & hardware support : Manuel Goepfert

Contact : metmap@orbifly.com




SOURCES & CREDITS :

   NOAA